createdAt,value
2022-10-22T00:00:35.011Z,60.30
2022-10-22T00:01:34.982Z,57.30
2022-10-22T00:02:35.011Z,59.40
2022-10-22T00:03:34.953Z,56.60
2022-10-22T00:04:35.636Z,57.90
2022-10-22T00:05:34.922Z,56.50
2022-10-22T00:06:34.932Z,56.50
2022-10-22T00:07:34.890Z,59.40
2022-10-22T00:08:34.910Z,72.10
2022-10-22T00:09:34.873Z,64.30
2022-10-22T00:10:34.841Z,61.10
2022-10-22T00:11:34.846Z,76.80
2022-10-22T00:12:34.913Z,84.50
2022-10-22T00:13:34.852Z,67.30
2022-10-22T00:14:34.800Z,122.40
2022-10-22T00:15:34.797Z,99.00
2022-10-22T00:16:34.763Z,440.50
2022-10-22T00:17:34.746Z,85.00
2022-10-22T00:18:34.868Z,147.40
2022-10-22T00:19:34.714Z,69.00
2022-10-22T00:20:34.728Z,90.60
2022-10-22T00:21:34.707Z,163.20
2022-10-22T00:22:34.676Z,172.80
2022-10-22T00:23:34.679Z,180.00
2022-10-22T00:24:34.672Z,622.90
2022-10-22T00:25:34.643Z,323.40
2022-10-22T00:26:34.630Z,277.90
2022-10-22T00:27:34.606Z,637.70
2022-10-22T00:28:34.611Z,122.80
2022-10-22T00:29:34.604Z,351.70
2022-10-22T00:30:34.587Z,216.20
2022-10-22T00:31:34.557Z,950.20
2022-10-22T00:32:34.553Z,362.30
2022-10-22T00:33:34.542Z,202.40
2022-10-22T00:34:34.499Z,108.70
2022-10-22T00:35:34.522Z,95.20
2022-10-22T00:36:34.599Z,100.80
2022-10-22T00:37:34.473Z,112.60
2022-10-22T00:38:34.475Z,140.20
2022-10-22T00:39:34.441Z,99.10
2022-10-22T00:40:34.450Z,149.30
2022-10-22T00:41:34.432Z,141.10
2022-10-22T00:42:34.423Z,115.30
2022-10-22T00:43:34.404Z,183.00
2022-10-22T00:44:34.369Z,104.50
2022-10-22T00:45:34.362Z,63.30
2022-10-22T00:46:34.358Z,64.70
2022-10-22T00:47:34.347Z,68.20
2022-10-22T00:48:34.452Z,99.20
2022-10-22T00:49:34.317Z,64.30
2022-10-22T00:50:34.294Z,69.60
2022-10-22T00:51:34.296Z,65.20
2022-10-22T00:52:34.264Z,70.70
2022-10-22T00:53:34.246Z,160.50
2022-10-22T00:54:34.359Z,126.40
2022-10-22T00:55:34.242Z,176.20
2022-10-22T00:56:34.230Z,130.60
2022-10-22T00:57:34.210Z,126.40
2022-10-22T00:58:34.188Z,67.20
2022-10-22T00:59:34.181Z,106.90
2022-10-22T01:00:34.199Z,156.90
2022-10-22T01:01:34.137Z,148.50
2022-10-22T01:02:34.134Z,208.30
2022-10-22T01:03:34.132Z,171.70
2022-10-22T01:04:34.099Z,106.40
2022-10-22T01:05:34.087Z,124.60
2022-10-22T01:06:34.205Z,120.20
2022-10-22T01:07:34.059Z,116.20
2022-10-22T01:08:34.130Z,70.50
2022-10-22T01:09:34.043Z,61.70
2022-10-22T01:10:34.019Z,79.80
2022-10-22T01:11:34.025Z,123.00
2022-10-22T01:12:34.119Z,73.80
2022-10-22T01:13:33.982Z,67.00
2022-10-22T01:14:33.974Z,71.00
2022-10-22T01:15:33.951Z,115.30
2022-10-22T01:16:33.945Z,143.80
2022-10-22T01:17:33.945Z,77.40
2022-10-22T01:18:33.943Z,84.00
2022-10-22T01:19:33.900Z,81.00
2022-10-22T01:20:38.021Z,81.30
2022-10-22T01:21:33.915Z,64.70
2022-10-22T01:22:33.874Z,82.70
2022-10-22T01:23:34.208Z,74.10
2022-10-22T01:24:33.853Z,77.90
2022-10-22T01:25:33.820Z,70.30
2022-10-22T01:26:33.829Z,65.00
2022-10-22T01:27:33.825Z,57.70
2022-10-22T01:28:33.787Z,60.30
2022-10-22T01:29:33.789Z,60.30
2022-10-22T01:30:33.851Z,64.80
2022-10-22T01:31:33.749Z,60.70
2022-10-22T01:32:33.716Z,57.70
2022-10-22T01:33:33.704Z,59.10
2022-10-22T01:34:33.705Z,57.20
2022-10-22T01:36:33.689Z,52.90
2022-10-22T01:37:33.651Z,51.80
2022-10-22T01:38:33.652Z,52.00
2022-10-22T01:39:33.626Z,53.40
2022-10-22T01:40:33.621Z,50.80
2022-10-22T01:41:33.622Z,50.30
2022-10-22T01:42:33.698Z,52.30
2022-10-22T01:43:33.583Z,48.80
2022-10-22T01:44:33.602Z,49.50
2022-10-22T01:45:33.541Z,49.50
2022-10-22T01:46:33.546Z,47.30
2022-10-22T01:47:33.522Z,51.80
2022-10-22T01:48:33.661Z,53.60
2022-10-22T01:49:33.506Z,50.80
2022-10-22T01:50:33.482Z,50.90
2022-10-22T01:51:33.475Z,55.10
2022-10-22T01:52:33.462Z,53.80
2022-10-22T01:53:33.476Z,54.30
2022-10-22T01:54:33.468Z,51.40
2022-10-22T01:55:33.414Z,46.20
2022-10-22T01:56:33.408Z,53.00
2022-10-22T01:57:33.399Z,52.60
2022-10-22T01:58:33.366Z,49.00
2022-10-22T01:59:33.376Z,46.40
2022-10-22T02:00:33.429Z,48.60
2022-10-22T02:01:33.339Z,47.70
2022-10-22T02:02:33.331Z,52.20
2022-10-22T02:03:33.296Z,52.00
2022-10-22T02:04:33.305Z,50.60
2022-10-22T02:05:33.295Z,49.30
2022-10-22T02:06:33.377Z,46.60
2022-10-22T02:07:33.253Z,48.70
2022-10-22T02:08:33.268Z,46.10
2022-10-22T02:09:33.232Z,48.40
2022-10-22T02:10:33.210Z,47.30
2022-10-22T02:11:33.211Z,47.60
2022-10-22T02:12:33.288Z,46.30
2022-10-22T02:13:33.178Z,52.60
2022-10-22T02:14:33.161Z,47.70
2022-10-22T02:15:33.141Z,52.60
2022-10-22T02:16:33.139Z,53.30
2022-10-22T02:17:33.125Z,46.60
2022-10-22T02:18:36.347Z,49.30
2022-10-22T02:19:34.103Z,44.40
2022-10-22T02:20:33.083Z,42.60
2022-10-22T02:21:33.064Z,49.40
2022-10-22T02:22:33.054Z,47.00
2022-10-22T02:23:33.048Z,48.40
2022-10-22T02:24:33.051Z,51.00
2022-10-22T02:25:33.012Z,46.10
2022-10-22T02:26:33.007Z,50.10
2022-10-22T02:27:32.983Z,53.50
2022-10-22T02:28:32.977Z,53.90
2022-10-22T02:29:32.977Z,49.50
2022-10-22T02:30:33.047Z,45.80
2022-10-22T02:31:32.942Z,49.10
2022-10-22T02:32:32.905Z,59.70
2022-10-22T02:33:32.896Z,55.90
2022-10-22T02:34:32.894Z,68.40
2022-10-22T02:35:32.871Z,65.40
2022-10-22T02:36:32.992Z,74.40
2022-10-22T02:37:32.860Z,107.20
2022-10-22T02:38:32.827Z,76.20
2022-10-22T02:39:32.819Z,82.70
2022-10-22T02:40:32.830Z,77.50
2022-10-22T02:41:32.809Z,58.60
2022-10-22T02:42:32.811Z,89.40
2022-10-22T02:43:32.779Z,166.50
2022-10-22T02:44:32.746Z,78.20
2022-10-22T02:45:32.739Z,109.90
2022-10-22T02:46:32.745Z,58.80
2022-10-22T02:47:32.709Z,54.30
2022-10-22T02:48:32.820Z,66.50
2022-10-22T02:49:32.709Z,114.50
2022-10-22T02:50:32.661Z,78.80
2022-10-22T02:51:32.674Z,80.20
2022-10-22T02:52:32.635Z,80.60
2022-10-22T02:53:32.642Z,86.80
2022-10-22T02:54:32.656Z,142.70
2022-10-22T02:55:32.607Z,175.00
2022-10-22T02:56:32.594Z,87.60
2022-10-22T02:57:32.564Z,122.90
2022-10-22T02:58:32.580Z,67.90
2022-10-22T02:59:32.544Z,88.60
2022-10-22T03:00:32.701Z,118.70
2022-10-22T03:01:32.530Z,59.20
2022-10-22T03:02:32.505Z,59.60
2022-10-22T03:03:32.506Z,63.00
2022-10-22T03:04:32.475Z,67.00
2022-10-22T03:05:32.456Z,59.90
2022-10-22T03:06:32.504Z,71.40
2022-10-22T03:07:32.435Z,58.70
2022-10-22T03:08:32.529Z,94.70
2022-10-22T03:09:32.430Z,110.40
2022-10-22T03:10:32.397Z,125.70
2022-10-22T03:11:32.378Z,117.90
2022-10-22T03:12:32.502Z,125.60
2022-10-22T03:13:32.376Z,157.90
2022-10-22T03:14:32.348Z,136.30
2022-10-22T03:15:32.360Z,67.20
2022-10-22T03:16:32.324Z,74.00
2022-10-22T03:17:32.299Z,65.00
2022-10-22T03:18:32.416Z,68.90
2022-10-22T03:19:32.277Z,305.60
2022-10-22T03:20:32.274Z,212.90
2022-10-22T03:21:32.263Z,664.40
2022-10-22T03:22:32.242Z,1565.10
2022-10-22T03:23:32.234Z,661.90
2022-10-22T03:24:32.331Z,115.10
2022-10-22T03:25:32.191Z,70.50
2022-10-22T03:26:32.206Z,74.00
2022-10-22T03:27:32.182Z,65.60
2022-10-22T03:28:32.153Z,59.10
2022-10-22T03:29:32.143Z,57.80
2022-10-22T03:30:32.255Z,66.00
2022-10-22T03:31:32.114Z,70.00
2022-10-22T03:32:32.130Z,65.40
2022-10-22T03:33:32.097Z,66.50
2022-10-22T03:34:32.074Z,73.30
2022-10-22T03:35:32.087Z,61.10
2022-10-22T03:36:32.174Z,68.90
2022-10-22T03:37:32.035Z,61.50
2022-10-22T03:38:32.050Z,71.90
2022-10-22T03:39:32.079Z,110.80
2022-10-22T03:40:32.010Z,69.90
2022-10-22T03:41:31.990Z,172.00
2022-10-22T03:42:31.996Z,63.10
2022-10-22T03:43:31.949Z,64.70
2022-10-22T03:44:31.964Z,65.00
2022-10-22T03:45:31.997Z,66.80
2022-10-22T03:46:31.918Z,64.00
2022-10-22T03:47:31.911Z,68.90
2022-10-22T03:48:31.930Z,65.10
2022-10-22T03:49:31.871Z,70.90
2022-10-22T03:50:31.875Z,74.30
2022-10-22T03:51:31.852Z,67.20
2022-10-22T03:52:31.844Z,68.60
2022-10-22T03:53:31.832Z,64.10
2022-10-22T03:54:31.962Z,69.00
2022-10-22T03:55:31.806Z,73.80
2022-10-22T03:56:31.782Z,72.60
2022-10-22T03:57:31.760Z,71.10
2022-10-22T03:58:31.777Z,73.90
2022-10-22T04:00:11.126Z,95.60
2022-10-22T04:00:31.746Z,78.40
2022-10-22T04:01:31.731Z,101.90
2022-10-22T04:02:31.716Z,70.10
2022-10-22T04:03:31.673Z,102.20
2022-10-22T04:04:31.673Z,127.80
2022-10-22T04:05:31.701Z,80.20
2022-10-22T04:06:31.645Z,76.70
2022-10-22T04:07:31.689Z,70.00
2022-10-22T04:08:31.718Z,70.50
2022-10-22T04:09:31.599Z,66.80
2022-10-22T04:10:31.610Z,93.50
2022-10-22T04:11:31.685Z,130.80
2022-10-22T04:12:31.662Z,125.80
2022-10-22T04:13:31.562Z,77.60
2022-10-22T04:14:31.558Z,75.30
2022-10-22T04:15:31.516Z,67.90
2022-10-22T04:16:31.508Z,80.80
2022-10-22T04:17:31.542Z,76.70
2022-10-22T04:18:31.479Z,74.00
2022-10-22T04:19:31.471Z,69.00
2022-10-22T04:20:31.465Z,59.00
2022-10-22T04:21:31.440Z,64.10
2022-10-22T04:22:31.442Z,62.90
2022-10-22T04:23:31.530Z,64.00
2022-10-22T04:24:31.407Z,58.60
2022-10-22T04:25:31.394Z,61.20
2022-10-22T04:26:31.380Z,59.60
2022-10-22T04:27:31.371Z,64.20
2022-10-22T04:28:31.354Z,77.10
2022-10-22T04:29:31.351Z,61.10
2022-10-22T04:30:31.320Z,76.20
2022-10-22T04:31:31.315Z,74.60
2022-10-22T04:32:31.304Z,65.60
2022-10-22T04:33:31.282Z,68.20
2022-10-22T04:34:31.276Z,69.80
2022-10-22T04:35:31.352Z,55.00
2022-10-22T04:36:31.241Z,68.50
2022-10-22T04:37:31.232Z,69.10
2022-10-22T04:38:31.204Z,66.80
2022-10-22T04:39:31.269Z,62.10
2022-10-22T04:40:31.199Z,65.30
2022-10-22T04:41:31.293Z,68.00
2022-10-22T04:42:31.167Z,72.90
2022-10-22T04:43:31.144Z,66.90
2022-10-22T04:44:31.126Z,70.30
2022-10-22T04:45:31.119Z,66.70
2022-10-22T04:46:31.110Z,71.80
2022-10-22T04:47:31.186Z,71.30
2022-10-22T04:48:31.067Z,65.90
2022-10-22T04:49:31.066Z,67.30
2022-10-22T04:50:31.039Z,64.80
2022-10-22T04:51:31.032Z,74.70
2022-10-22T04:52:31.030Z,71.60
2022-10-22T04:53:31.127Z,69.50
2022-10-22T04:54:33.160Z,69.70
2022-10-22T04:56:30.958Z,67.80
2022-10-22T04:57:30.952Z,64.70
2022-10-22T04:58:30.930Z,69.10
2022-10-22T04:59:30.969Z,68.40
2022-10-22T05:00:30.914Z,67.20
2022-10-22T05:01:30.940Z,68.70
2022-10-22T05:02:30.886Z,74.70
2022-10-22T05:03:30.871Z,80.70
2022-10-22T05:04:30.841Z,81.20
2022-10-22T05:05:30.865Z,91.90
2022-10-22T05:06:30.827Z,91.30
2022-10-22T05:07:30.816Z,84.30
2022-10-22T05:08:30.865Z,93.70
2022-10-22T05:09:30.839Z,92.50
2022-10-22T05:10:30.785Z,94.80
2022-10-22T05:11:30.854Z,92.80
2022-10-22T05:12:30.751Z,87.50
2022-10-22T05:13:30.734Z,111.70
2022-10-22T05:14:30.705Z,147.00
2022-10-22T05:15:30.700Z,170.10
2022-10-22T05:16:30.705Z,134.90
2022-10-22T05:17:30.684Z,288.90
2022-10-22T05:18:30.648Z,434.30
2022-10-22T05:19:30.651Z,115.90
2022-10-22T05:20:30.640Z,97.40
2022-10-22T05:21:30.606Z,571.10
2022-10-22T05:22:30.613Z,183.60
2022-10-22T05:23:30.607Z,139.50
2022-10-22T05:24:30.571Z,197.60
2022-10-22T05:25:30.572Z,210.20
2022-10-22T05:26:30.538Z,109.40
2022-10-22T05:27:30.533Z,88.20
2022-10-22T05:28:30.531Z,721.60
2022-10-22T05:29:30.528Z,550.50
2022-10-22T05:30:30.503Z,240.90
2022-10-22T05:31:30.467Z,168.20
2022-10-22T05:32:30.461Z,157.20
2022-10-22T05:33:30.464Z,90.80
2022-10-22T05:34:30.443Z,91.20
2022-10-22T05:35:30.531Z,449.20
2022-10-22T05:36:30.401Z,585.70
2022-10-22T05:37:30.405Z,425.90
2022-10-22T05:38:30.379Z,277.60
2022-10-22T05:39:30.374Z,110.00
2022-10-22T05:41:41.765Z,102.30
2022-10-22T05:42:41.599Z,96.20
2022-10-22T05:43:41.357Z,340.70
2022-10-22T05:44:41.363Z,150.60
2022-10-22T05:45:41.335Z,254.20
2022-10-22T05:46:41.337Z,169.70
2022-10-22T05:47:41.360Z,148.00
2022-10-22T05:48:41.297Z,280.50
2022-10-22T05:49:41.291Z,194.10
2022-10-22T05:50:41.400Z,184.50
2022-10-22T05:51:41.238Z,193.20
2022-10-22T05:52:41.605Z,208.00
2022-10-22T05:53:41.222Z,151.70
2022-10-22T05:54:41.202Z,83.90
2022-10-22T05:55:41.149Z,80.50
2022-10-22T05:56:41.162Z,100.40
2022-10-22T05:57:41.119Z,98.60
2022-10-22T05:58:41.118Z,125.70
2022-10-22T05:59:41.223Z,98.90
2022-10-22T06:00:41.088Z,77.80
2022-10-22T06:01:41.091Z,80.30
2022-10-22T06:02:41.274Z,93.40
2022-10-22T06:03:41.050Z,519.70
2022-10-22T06:04:41.045Z,301.90
2022-10-22T06:05:41.133Z,89.30
2022-10-22T06:06:41.014Z,82.00
2022-10-22T06:07:41.005Z,74.00
2022-10-22T06:08:41.050Z,124.10
2022-10-22T06:09:40.967Z,137.80
2022-10-22T06:10:40.966Z,125.70
2022-10-22T06:11:41.058Z,123.50
2022-10-22T06:12:41.323Z,97.70
2022-10-22T06:13:40.930Z,74.70
2022-10-22T06:14:40.938Z,55.50
2022-10-22T06:15:40.875Z,70.60
2022-10-22T06:16:40.888Z,58.20
2022-10-22T06:17:40.995Z,65.60
2022-10-22T06:18:40.868Z,80.40
2022-10-22T06:19:40.845Z,59.80
2022-10-22T06:20:40.816Z,61.40
2022-10-22T06:21:40.815Z,66.30
2022-10-22T06:22:41.045Z,60.90
2022-10-22T06:23:40.880Z,52.70
2022-10-22T06:24:42.955Z,59.70
2022-10-22T06:25:40.751Z,53.30
2022-10-22T06:26:40.751Z,49.80
2022-10-22T06:27:40.717Z,48.00
2022-10-22T06:28:40.722Z,54.70
2022-10-22T06:29:40.800Z,53.80
2022-10-22T06:30:43.010Z,48.90
2022-10-22T06:31:41.695Z,52.60
2022-10-22T06:32:40.910Z,49.50
2022-10-22T06:33:40.657Z,49.50
2022-10-22T06:34:40.642Z,49.70
2022-10-22T06:35:40.722Z,49.30
2022-10-22T06:37:40.829Z,57.50
2022-10-22T06:38:40.572Z,65.70
2022-10-22T06:39:40.565Z,58.10
2022-10-22T06:40:40.547Z,45.60
2022-10-22T06:41:40.657Z,43.30
2022-10-22T06:42:40.761Z,40.40
2022-10-22T06:43:40.500Z,41.70
2022-10-22T06:44:40.509Z,41.00
2022-10-22T06:45:40.472Z,43.20
2022-10-22T06:46:43.444Z,51.10
2022-10-22T06:47:40.686Z,47.00
2022-10-22T06:48:40.441Z,42.30
2022-10-22T06:49:40.437Z,45.10
2022-10-22T06:50:40.429Z,40.60
2022-10-22T06:51:40.396Z,38.00
2022-10-22T06:52:40.407Z,37.20
2022-10-22T06:53:40.482Z,33.80
2022-10-22T06:54:40.368Z,37.50
2022-10-22T06:55:40.358Z,36.00
2022-10-22T06:56:40.350Z,31.60
2022-10-22T06:57:40.571Z,31.70
2022-10-22T06:58:40.304Z,33.10
2022-10-22T06:59:40.341Z,31.40
2022-10-22T07:00:40.293Z,28.50
2022-10-22T07:01:40.337Z,30.60
2022-10-22T07:02:40.465Z,29.00
2022-10-22T07:03:40.248Z,26.80
2022-10-22T07:04:40.252Z,27.60
2022-10-22T07:05:40.309Z,26.70
2022-10-22T07:06:40.189Z,31.80
2022-10-22T07:07:40.220Z,28.50
2022-10-22T07:08:40.258Z,27.10
2022-10-22T07:09:40.168Z,25.10
2022-10-22T07:10:40.233Z,21.50
2022-10-22T07:11:40.243Z,24.50
2022-10-22T07:12:40.412Z,23.70
2022-10-22T07:13:40.114Z,23.00
2022-10-22T07:14:40.116Z,20.90
2022-10-22T07:15:40.069Z,21.60
2022-10-22T07:16:40.066Z,24.80
2022-10-22T07:18:40.041Z,20.30
2022-10-22T07:19:40.053Z,26.80
2022-10-22T07:20:40.004Z,19.20
2022-10-22T07:21:39.998Z,19.00
2022-10-22T07:22:40.280Z,22.30
2022-10-22T07:23:40.099Z,19.50
2022-10-22T07:24:39.968Z,19.90
2022-10-22T07:25:39.945Z,21.00
2022-10-22T07:26:39.926Z,22.90
2022-10-22T07:27:40.162Z,24.40
2022-10-22T07:28:39.957Z,19.90
2022-10-22T07:29:39.916Z,23.60
2022-10-22T07:30:39.873Z,19.80
2022-10-22T07:31:39.881Z,23.70
2022-10-22T07:32:39.840Z,19.80
2022-10-22T07:33:39.850Z,26.70
2022-10-22T07:34:41.831Z,21.90
2022-10-22T07:35:39.926Z,20.90
2022-10-22T07:36:39.803Z,18.60
2022-10-22T07:37:40.044Z,22.20
2022-10-22T07:38:39.761Z,18.30
2022-10-22T07:39:39.761Z,18.20
2022-10-22T07:40:39.753Z,19.80
2022-10-22T07:41:39.845Z,22.50
2022-10-22T07:42:39.714Z,17.80
2022-10-22T07:43:39.691Z,19.70
2022-10-22T07:44:39.705Z,22.50
2022-10-22T07:45:39.672Z,20.20
2022-10-22T07:46:39.681Z,19.10
2022-10-22T07:47:39.977Z,20.00
2022-10-22T07:48:39.627Z,20.80
2022-10-22T07:49:39.647Z,19.40
2022-10-22T07:50:39.663Z,21.30
2022-10-22T07:51:39.588Z,23.20
2022-10-22T07:52:40.018Z,21.20
2022-10-22T07:53:39.605Z,21.40
2022-10-22T07:54:39.544Z,19.70
2022-10-22T07:55:39.558Z,19.70
2022-10-22T07:56:39.507Z,19.00
2022-10-22T07:57:39.513Z,19.00
2022-10-22T07:58:39.510Z,21.80
2022-10-22T07:59:39.497Z,20.70
2022-10-22T08:00:39.469Z,18.80
2022-10-22T08:01:39.529Z,18.40
2022-10-22T08:02:39.906Z,18.50
2022-10-22T08:03:39.420Z,17.10
2022-10-22T08:04:39.430Z,17.80
2022-10-22T08:05:39.508Z,20.50
2022-10-22T08:06:39.390Z,21.70
2022-10-22T08:07:39.385Z,20.60
2022-10-22T08:08:39.387Z,21.50
2022-10-22T08:09:39.351Z,18.30
2022-10-22T08:10:39.352Z,18.70
2022-10-22T08:11:39.417Z,17.30
2022-10-22T08:12:39.712Z,21.60
2022-10-22T08:13:44.099Z,15.80
2022-10-22T08:14:40.277Z,15.50
2022-10-22T08:15:39.326Z,19.40
2022-10-22T08:16:39.255Z,18.20
2022-10-22T08:17:39.796Z,16.60
2022-10-22T08:18:39.211Z,19.00
2022-10-22T08:19:39.225Z,24.10
2022-10-22T08:20:39.191Z,25.70
2022-10-22T08:21:39.510Z,19.40
2022-10-22T08:22:39.166Z,23.20
2022-10-22T08:23:39.283Z,32.00
2022-10-22T08:24:39.146Z,38.00
2022-10-22T08:25:39.114Z,40.60
2022-10-22T08:26:39.124Z,38.90
2022-10-22T08:27:39.483Z,40.40
2022-10-22T08:28:39.084Z,40.50
2022-10-22T08:29:39.200Z,44.60
2022-10-22T08:30:39.069Z,47.00
2022-10-22T08:31:39.070Z,44.20
2022-10-22T08:32:39.043Z,43.00
2022-10-22T08:33:39.074Z,38.60
2022-10-22T08:34:39.035Z,29.50
2022-10-22T08:35:39.018Z,29.10
2022-10-22T08:36:39.011Z,25.00
2022-10-22T08:37:39.333Z,24.20
2022-10-22T08:38:38.932Z,23.60
2022-10-22T08:39:38.952Z,24.40
2022-10-22T08:40:39.083Z,23.30
2022-10-22T08:41:38.950Z,22.00
2022-10-22T08:42:39.184Z,22.00
2022-10-22T08:43:38.876Z,21.00
2022-10-22T08:44:38.890Z,20.40
2022-10-22T08:45:38.845Z,21.20
2022-10-22T08:46:38.834Z,18.20
2022-10-22T08:47:38.852Z,19.10
2022-10-22T08:48:38.809Z,17.50
2022-10-22T08:49:41.283Z,17.80
2022-10-22T08:50:38.786Z,22.20
2022-10-22T08:51:38.766Z,18.40
2022-10-22T08:52:39.221Z,18.40
2022-10-22T08:53:38.857Z,18.70
2022-10-22T08:54:38.714Z,17.00
2022-10-22T08:55:38.744Z,16.70
2022-10-22T08:56:38.686Z,16.00
2022-10-22T08:57:38.698Z,15.90
2022-10-22T08:58:38.764Z,19.60
2022-10-22T08:59:38.680Z,14.10
2022-10-22T09:00:38.658Z,19.50
2022-10-22T09:01:38.627Z,17.00
2022-10-22T09:02:38.976Z,15.20
2022-10-22T09:03:38.610Z,16.90
2022-10-22T09:04:38.602Z,18.10
2022-10-22T09:05:38.754Z,15.20
2022-10-22T09:06:38.558Z,18.20
2022-10-22T09:07:38.802Z,18.00
2022-10-22T09:08:38.590Z,19.30
2022-10-22T09:09:38.541Z,14.50
2022-10-22T09:10:38.522Z,17.70
2022-10-22T09:11:38.530Z,16.70
2022-10-22T09:12:38.491Z,17.30
2022-10-22T09:13:38.461Z,18.10
2022-10-22T09:14:38.441Z,18.60
2022-10-22T09:15:38.464Z,22.40
2022-10-22T09:16:38.420Z,17.90
2022-10-22T09:17:38.515Z,17.40
2022-10-22T09:18:38.406Z,23.10
2022-10-22T09:19:38.400Z,24.00
2022-10-22T09:20:38.368Z,17.60
2022-10-22T09:21:38.376Z,20.10
2022-10-22T09:22:38.363Z,16.70
2022-10-22T09:23:38.369Z,17.30
2022-10-22T09:24:38.329Z,14.40
2022-10-22T09:25:38.329Z,17.10
2022-10-22T09:26:38.276Z,16.90
2022-10-22T09:27:38.623Z,14.70
2022-10-22T09:28:38.266Z,15.10
2022-10-22T09:29:38.380Z,19.10
2022-10-22T09:30:38.254Z,15.80
2022-10-22T09:31:38.246Z,18.50
2022-10-22T09:32:38.370Z,19.00
2022-10-22T09:33:38.200Z,43.30
2022-10-22T09:34:38.177Z,20.00
2022-10-22T09:35:38.302Z,15.60
2022-10-22T09:36:38.164Z,20.10
2022-10-22T09:37:38.138Z,14.70
2022-10-22T09:38:38.129Z,12.60
2022-10-22T09:39:38.124Z,17.20
2022-10-22T09:40:38.091Z,13.40
2022-10-22T09:41:38.215Z,14.80
2022-10-22T09:42:38.107Z,14.50
2022-10-22T09:43:38.055Z,16.60
2022-10-22T09:44:38.049Z,14.40
2022-10-22T09:45:38.039Z,14.50
2022-10-22T09:46:38.012Z,12.40
2022-10-22T09:47:43.639Z,13.90
2022-10-22T09:48:38.984Z,14.70
2022-10-22T09:49:37.992Z,15.60
2022-10-22T09:50:37.979Z,16.40
2022-10-22T09:51:37.944Z,13.00
2022-10-22T09:52:37.949Z,13.90
2022-10-22T09:53:37.944Z,15.60
2022-10-22T09:54:37.896Z,18.70
2022-10-22T09:55:37.933Z,18.50
2022-10-22T09:56:37.919Z,14.90
2022-10-22T09:57:39.888Z,13.90
2022-10-22T09:58:37.872Z,14.60
2022-10-22T09:59:37.969Z,16.40
2022-10-22T10:00:37.929Z,14.60
2022-10-22T10:01:37.800Z,18.80
2022-10-22T10:02:38.772Z,16.40
2022-10-22T10:03:37.822Z,12.90
2022-10-22T10:04:37.764Z,13.00
2022-10-22T10:05:37.830Z,13.80
2022-10-22T10:06:37.757Z,16.10
2022-10-22T10:07:37.728Z,14.00
2022-10-22T10:08:37.754Z,16.60
2022-10-22T10:09:37.731Z,17.20
2022-10-22T10:10:37.705Z,12.90
2022-10-22T10:11:37.696Z,16.00
2022-10-22T10:12:37.689Z,15.40
2022-10-22T10:13:37.656Z,15.60
2022-10-22T10:14:37.643Z,15.70
2022-10-22T10:15:37.673Z,19.50
2022-10-22T10:16:37.605Z,14.80
2022-10-22T10:17:37.738Z,17.60
2022-10-22T10:18:37.599Z,15.50
2022-10-22T10:19:37.575Z,17.90
2022-10-22T10:20:37.560Z,14.40
2022-10-22T10:21:37.536Z,13.70
2022-10-22T10:22:37.526Z,15.40
2022-10-22T10:23:37.630Z,17.20
2022-10-22T10:24:37.510Z,19.40
2022-10-22T10:25:37.508Z,12.80
2022-10-22T10:26:37.472Z,16.80
2022-10-22T10:27:37.480Z,14.50
2022-10-22T10:28:37.438Z,18.60
2022-10-22T10:30:37.436Z,13.50
2022-10-22T10:31:37.423Z,12.00
2022-10-22T10:32:37.404Z,13.90
2022-10-22T10:33:37.371Z,16.90
2022-10-22T10:34:37.362Z,16.10
2022-10-22T10:35:37.487Z,14.10
2022-10-22T10:36:37.332Z,15.60
2022-10-22T10:37:37.335Z,17.20
2022-10-22T10:38:37.317Z,13.60
2022-10-22T10:39:37.299Z,16.20
2022-10-22T10:40:37.273Z,13.00
2022-10-22T10:41:37.419Z,14.40
2022-10-22T10:42:37.268Z,14.00
2022-10-22T10:43:37.245Z,14.30
2022-10-22T10:44:37.242Z,13.40
2022-10-22T10:45:37.216Z,12.60
2022-10-22T10:46:37.370Z,14.90
2022-10-22T10:47:37.239Z,11.70
2022-10-22T10:48:37.176Z,11.60
2022-10-22T10:49:37.179Z,20.70
2022-10-22T10:50:37.161Z,12.00
2022-10-22T10:51:37.145Z,15.00
2022-10-22T10:52:37.128Z,14.70
2022-10-22T10:53:37.221Z,16.40
2022-10-22T10:55:37.105Z,15.40
2022-10-22T10:56:39.150Z,14.70
2022-10-22T10:57:37.069Z,16.80
2022-10-22T10:58:37.052Z,17.30
2022-10-22T10:59:37.052Z,14.90
2022-10-22T11:00:37.022Z,16.80
2022-10-22T11:01:37.094Z,16.50
2022-10-22T11:02:36.993Z,19.00
2022-10-22T11:03:36.996Z,14.60
2022-10-22T11:04:36.954Z,16.80
2022-10-22T11:05:37.067Z,15.50
2022-10-22T11:06:36.936Z,17.30
2022-10-22T11:07:36.914Z,14.80
2022-10-22T11:08:36.966Z,15.30
2022-10-22T11:09:36.905Z,16.30
2022-10-22T11:10:36.892Z,18.50
2022-10-22T11:11:37.359Z,18.10
2022-10-22T11:12:36.860Z,16.50
2022-10-22T11:13:36.838Z,14.10
2022-10-22T11:14:36.864Z,17.30
2022-10-22T11:15:36.830Z,14.70
2022-10-22T11:16:36.801Z,16.20
2022-10-22T11:17:36.880Z,18.40
2022-10-22T11:18:36.818Z,15.60
2022-10-22T11:19:50.965Z,17.60
2022-10-22T11:20:37.744Z,16.10
2022-10-22T11:21:36.740Z,11.70
2022-10-22T11:22:36.703Z,15.00
2022-10-22T11:23:36.745Z,15.10
2022-10-22T11:24:36.681Z,16.40
2022-10-22T11:25:36.703Z,14.10
2022-10-22T11:26:36.666Z,13.70
2022-10-22T11:27:36.643Z,14.70
2022-10-22T11:28:36.623Z,15.30
2022-10-22T11:29:36.755Z,16.10
2022-10-22T11:30:36.610Z,16.60
2022-10-22T11:31:36.585Z,18.60
2022-10-22T11:32:36.584Z,17.40
2022-10-22T11:33:36.572Z,12.00
2022-10-22T11:34:36.545Z,17.00
2022-10-22T11:35:36.679Z,15.50
2022-10-22T11:36:36.539Z,15.60
2022-10-22T11:37:36.524Z,17.00
2022-10-22T11:38:36.509Z,14.30
2022-10-22T11:39:36.485Z,15.60
2022-10-22T11:40:36.482Z,15.20
2022-10-22T11:41:36.572Z,14.10
2022-10-22T11:42:36.439Z,18.60
2022-10-22T11:43:36.451Z,18.90
2022-10-22T11:44:36.422Z,16.10
2022-10-22T11:45:36.430Z,18.20
2022-10-22T11:46:36.389Z,17.50
2022-10-22T11:47:36.523Z,14.60
2022-10-22T11:48:36.381Z,13.10
2022-10-22T11:49:36.364Z,14.70
2022-10-22T11:50:36.340Z,19.00
2022-10-22T11:51:36.322Z,15.60
2022-10-22T11:52:36.324Z,13.30
2022-10-22T11:53:36.328Z,15.30
2022-10-22T11:54:36.282Z,14.40
2022-10-22T11:55:36.288Z,13.90
2022-10-22T11:56:36.244Z,11.10
2022-10-22T11:57:36.256Z,15.80
2022-10-22T11:58:36.236Z,15.20
2022-10-22T11:59:36.325Z,13.30
2022-10-22T12:00:36.230Z,13.90
2022-10-22T12:02:36.177Z,13.60
2022-10-22T12:03:36.174Z,16.30
2022-10-22T12:04:36.211Z,15.50
2022-10-22T12:05:36.270Z,16.70
2022-10-22T12:06:36.127Z,16.90
2022-10-22T12:07:36.112Z,16.90
2022-10-22T12:08:36.210Z,12.70
2022-10-22T12:09:36.080Z,13.30
2022-10-22T12:10:36.061Z,13.30
2022-10-22T12:11:36.095Z,14.70
2022-10-22T12:12:36.030Z,15.30
2022-10-22T12:13:36.048Z,14.70
2022-10-22T12:14:36.015Z,13.20
2022-10-22T12:15:35.999Z,15.00
2022-10-22T12:16:56.322Z,11.90
2022-10-22T12:17:37.097Z,17.30
2022-10-22T12:18:35.960Z,14.10
2022-10-22T12:19:35.935Z,16.70
2022-10-22T12:20:35.937Z,14.40
2022-10-22T12:21:35.913Z,13.50
2022-10-22T12:22:35.893Z,12.10
2022-10-22T12:23:35.937Z,15.50
2022-10-22T12:24:35.855Z,13.70
2022-10-22T12:25:36.098Z,15.60
2022-10-22T12:26:35.861Z,10.40
2022-10-22T12:27:35.826Z,14.20
2022-10-22T12:28:35.829Z,11.10
2022-10-22T12:29:35.927Z,14.40
2022-10-22T12:30:35.776Z,15.90
2022-10-22T12:31:35.800Z,13.50
2022-10-22T12:32:35.779Z,11.80
2022-10-22T12:33:35.756Z,15.50
2022-10-22T12:34:35.729Z,13.00
2022-10-22T12:35:35.775Z,15.40
2022-10-22T12:36:35.708Z,15.70
2022-10-22T12:37:35.702Z,12.30
2022-10-22T12:38:35.699Z,12.50
2022-10-22T12:39:35.693Z,13.20
2022-10-22T12:40:35.668Z,14.30
2022-10-22T12:41:35.762Z,13.80
2022-10-22T12:42:35.623Z,13.60
2022-10-22T12:43:35.627Z,17.50
2022-10-22T12:44:35.599Z,13.30
2022-10-22T12:45:35.612Z,14.00
2022-10-22T12:46:35.585Z,13.10
2022-10-22T12:47:35.594Z,14.50
2022-10-22T12:48:35.557Z,14.40
2022-10-22T12:49:35.551Z,14.70
2022-10-22T12:50:35.537Z,13.80
2022-10-22T12:51:35.497Z,15.00
2022-10-22T12:52:35.509Z,13.50
2022-10-22T12:53:35.606Z,11.10
2022-10-22T12:54:35.456Z,15.60
2022-10-22T12:55:35.481Z,13.60
2022-10-22T12:56:35.439Z,14.60
2022-10-22T12:57:35.440Z,14.70